createdAt,value
2017-11-28T00:00:55.067Z,89.55
2017-11-28T00:03:22.574Z,89.51
2017-11-28T00:05:50.092Z,89.42
2017-11-28T00:08:17.607Z,89.28
2017-11-28T00:10:45.110Z,89.52
2017-11-28T00:13:12.622Z,89.30
2017-11-28T00:15:40.130Z,89.27
2017-11-28T00:18:07.629Z,89.26
2017-11-28T00:20:35.142Z,89.52
2017-11-28T00:23:02.646Z,89.03
2017-11-28T00:25:30.165Z,89.11
2017-11-28T00:27:57.667Z,89.09
2017-11-28T00:30:25.178Z,89.04
2017-11-28T00:32:52.679Z,89.04
2017-11-28T00:35:20.187Z,88.84
2017-11-28T00:37:47.713Z,88.54
2017-11-28T00:40:15.259Z,88.64
2017-11-28T00:42:42.767Z,88.76
2017-11-28T00:45:10.280Z,88.62
2017-11-28T00:47:37.804Z,88.48
2017-11-28T00:50:05.314Z,88.52
2017-11-28T00:52:32.830Z,88.32
2017-11-28T00:55:00.338Z,88.21
2017-11-28T00:57:27.844Z,87.87
2017-11-28T00:59:55.366Z,87.66
2017-11-28T01:02:22.869Z,87.89
2017-11-28T01:04:50.374Z,87.68
2017-11-28T01:07:17.890Z,87.41
2017-11-28T01:09:45.409Z,87.65
2017-11-28T01:12:12.924Z,87.86
2017-11-28T01:14:40.439Z,87.52
2017-11-28T01:17:07.955Z,87.44
2017-11-28T01:19:35.478Z,87.23
2017-11-28T01:22:02.990Z,87.05
2017-11-28T01:24:30.497Z,86.90
2017-11-28T01:26:58.020Z,87.10
2017-11-28T01:29:25.527Z,86.99
2017-11-28T01:31:53.031Z,86.87
2017-11-28T01:34:20.541Z,86.71
2017-11-28T01:36:48.069Z,86.61
2017-11-28T01:39:15.572Z,86.64
2017-11-28T01:41:43.083Z,86.69
2017-11-28T01:44:10.592Z,86.39
2017-11-28T01:46:38.099Z,86.09
2017-11-28T01:49:05.609Z,86.09
2017-11-28T01:51:33.115Z,86.25
2017-11-28T01:54:00.628Z,86.29
2017-11-28T01:56:28.149Z,86.38
2017-11-28T01:58:55.662Z,86.28
2017-11-28T02:01:23.172Z,86.20
2017-11-28T02:03:50.695Z,86.69
2017-11-28T02:06:18.202Z,86.42
2017-11-28T02:08:45.726Z,86.41
2017-11-28T02:11:13.229Z,86.20
2017-11-28T02:13:40.733Z,86.61
2017-11-28T02:16:08.234Z,86.43
2017-11-28T02:18:35.763Z,86.40
2017-11-28T02:21:03.278Z,86.33
2017-11-28T02:23:30.787Z,86.28
2017-11-28T02:25:58.304Z,86.37
2017-11-28T02:28:25.837Z,86.11
2017-11-28T02:30:53.354Z,86.08
2017-11-28T02:33:20.876Z,85.94
2017-11-28T02:35:48.407Z,86.00
2017-11-28T02:38:15.906Z,85.70
2017-11-28T02:40:55.154Z,85.25
2017-11-28T02:43:22.663Z,85.41
2017-11-28T02:45:50.184Z,85.57
2017-11-28T02:48:17.723Z,85.38
2017-11-28T02:50:45.229Z,85.35
2017-11-28T02:53:12.733Z,85.71
2017-11-28T03:21:25.304Z,85.42
2017-11-28T03:23:59.461Z,85.44
2017-11-28T03:26:26.974Z,85.39
2017-11-28T03:29:16.915Z,85.40
2017-11-28T03:31:44.421Z,85.54
2017-11-28T03:34:13.281Z,85.46
2017-11-28T03:36:40.789Z,84.95
2017-11-28T03:39:08.302Z,85.09
2017-11-28T03:41:35.805Z,85.10
2017-11-28T03:44:03.314Z,85.07
2017-11-28T03:46:30.823Z,84.77
2017-11-28T03:49:02.156Z,84.67
2017-11-28T03:51:29.668Z,85.07
2017-11-28T03:53:57.177Z,84.79
2017-11-28T03:56:24.699Z,84.83
2017-11-28T03:58:52.220Z,84.82
2017-11-28T04:01:19.739Z,84.79
2017-11-28T04:03:47.256Z,85.01
2017-11-28T04:06:14.782Z,84.92
2017-11-28T04:08:42.304Z,84.89
2017-11-28T04:11:09.818Z,85.18
2017-11-28T04:13:37.323Z,84.87
2017-11-28T04:16:04.880Z,85.30
2017-11-28T04:18:32.412Z,84.64
2017-11-28T04:20:59.922Z,84.84
2017-11-28T04:23:27.439Z,85.06
2017-11-28T04:25:54.946Z,84.90
2017-11-28T04:28:22.458Z,85.18
2017-11-28T04:30:49.969Z,85.10
2017-11-28T04:33:17.478Z,84.74
2017-11-28T04:35:44.989Z,84.93
2017-11-28T04:38:12.494Z,85.31
2017-11-28T04:40:40.020Z,85.01
2017-11-28T04:43:07.522Z,85.00
2017-11-28T04:45:35.028Z,84.94
2017-11-28T04:48:02.546Z,85.30
2017-11-28T04:50:30.064Z,85.33
2017-11-28T04:52:57.574Z,85.30
2017-11-28T04:55:25.091Z,85.43
2017-11-28T04:57:52.604Z,85.45
2017-11-28T05:00:20.126Z,85.60
2017-11-28T05:02:47.638Z,85.42
2017-11-28T05:05:15.142Z,85.03
2017-11-28T05:07:42.646Z,85.18
2017-11-28T05:10:10.158Z,85.41
2017-11-28T05:12:37.677Z,85.64
2017-11-28T05:15:05.201Z,85.40
2017-11-28T05:17:32.723Z,85.54
2017-11-28T05:20:00.237Z,85.59
2017-11-28T05:22:27.754Z,85.54
2017-11-28T05:24:55.264Z,85.57
2017-11-28T05:27:22.776Z,85.63
2017-11-28T05:29:50.288Z,85.67
2017-11-28T05:32:17.807Z,85.62
2017-11-28T05:34:45.356Z,85.75
2017-11-28T05:37:12.869Z,85.87
2017-11-28T05:39:40.383Z,86.16
2017-11-28T05:42:07.890Z,86.15
2017-11-28T05:44:35.404Z,86.56
2017-11-28T05:47:02.920Z,86.36
2017-11-28T05:49:30.440Z,86.42
2017-11-28T05:51:57.967Z,86.59
2017-11-28T05:54:25.479Z,86.60
2017-11-28T05:56:54.802Z,86.64
2017-11-28T05:59:22.317Z,86.65
2017-11-28T06:01:49.833Z,86.72
2017-11-28T06:04:17.347Z,86.71
2017-11-28T06:06:44.859Z,86.83
2017-11-28T06:09:12.366Z,86.89
2017-11-28T06:11:39.894Z,86.78
2017-11-28T06:14:07.406Z,87.07
2017-11-28T06:16:34.928Z,87.04
2017-11-28T06:19:02.441Z,87.06
2017-11-28T06:21:29.948Z,86.92
2017-11-28T06:23:57.464Z,87.13
2017-11-28T06:26:25.012Z,87.15
2017-11-28T06:28:52.532Z,87.04
2017-11-28T06:31:20.055Z,86.96
2017-11-28T06:33:47.566Z,87.12
2017-11-28T06:36:15.091Z,87.10
2017-11-28T06:38:42.618Z,87.10
2017-11-28T06:41:10.146Z,87.29
2017-11-28T06:43:37.659Z,87.11
2017-11-28T06:46:05.166Z,87.14
2017-11-28T06:48:32.682Z,87.13
2017-11-28T06:51:00.203Z,87.13
2017-11-28T06:53:27.714Z,87.09
2017-11-28T06:55:55.776Z,87.17
2017-11-28T06:58:23.309Z,87.24
2017-11-28T07:00:50.834Z,87.25
2017-11-28T07:03:18.358Z,87.47
2017-11-28T07:05:45.877Z,87.22
2017-11-28T07:08:13.398Z,87.39
2017-11-28T07:10:40.907Z,87.35
2017-11-28T07:13:08.424Z,87.55
2017-11-28T07:15:35.943Z,87.58
2017-11-28T07:18:03.461Z,87.62
2017-11-28T07:20:30.972Z,87.58
2017-11-28T07:22:58.474Z,87.64
2017-11-28T07:25:25.984Z,87.74
2017-11-28T07:27:53.494Z,87.94
2017-11-28T07:30:21.009Z,87.79
2017-11-28T07:32:48.535Z,87.46
2017-11-28T07:35:16.048Z,87.48
2017-11-28T07:37:43.573Z,87.38
2017-11-28T07:40:11.095Z,87.31
2017-11-28T07:42:38.609Z,87.08
2017-11-28T07:45:06.130Z,86.84
2017-11-28T07:47:33.647Z,86.82
2017-11-28T07:50:01.168Z,86.74
2017-11-28T07:52:28.669Z,86.50
2017-11-28T07:54:56.186Z,86.66
2017-11-28T07:57:23.704Z,86.32
2017-11-28T07:59:51.224Z,86.12
2017-11-28T08:02:18.752Z,85.85
2017-11-28T08:04:46.271Z,85.49
2017-11-28T08:07:13.780Z,85.25
2017-11-28T08:09:41.282Z,84.93
2017-11-28T08:12:08.794Z,84.89
2017-11-28T08:14:36.302Z,85.06
2017-11-28T08:17:03.819Z,85.13
2017-11-28T08:19:31.341Z,84.44
2017-11-28T08:21:58.858Z,83.75
2017-11-28T08:24:26.391Z,84.58
2017-11-28T08:26:53.899Z,84.00
2017-11-28T08:29:21.419Z,84.65
2017-11-28T08:31:48.939Z,83.58
2017-11-28T08:34:16.454Z,83.28
2017-11-28T08:36:43.967Z,83.87
2017-11-28T08:39:11.498Z,84.08
2017-11-28T08:41:39.012Z,83.92
2017-11-28T08:44:06.522Z,83.77
2017-11-28T08:46:34.062Z,84.04
2017-11-28T08:49:01.587Z,83.24
2017-11-28T08:51:29.096Z,83.25
2017-11-28T08:53:56.613Z,83.38
2017-11-28T08:56:24.127Z,83.19
2017-11-28T08:58:51.648Z,83.47
2017-11-28T09:01:19.167Z,83.42
2017-11-28T09:03:46.684Z,83.26
2017-11-28T09:06:14.195Z,83.72
2017-11-28T09:08:41.704Z,83.74
2017-11-28T09:11:09.230Z,83.76
2017-11-28T09:13:36.740Z,83.44
2017-11-28T09:16:04.250Z,83.50
2017-11-28T09:18:31.769Z,83.65
2017-11-28T09:20:59.296Z,82.53
2017-11-28T09:23:26.822Z,82.30
2017-11-28T09:25:54.345Z,82.56
2017-11-28T09:28:21.860Z,82.47
2017-11-28T09:30:49.388Z,81.80
2017-11-28T09:33:16.907Z,82.45
2017-11-28T09:35:44.419Z,81.26
2017-11-28T09:38:11.931Z,81.78
2017-11-28T09:40:39.449Z,80.77
2017-11-28T09:43:06.981Z,81.08
2017-11-28T09:45:34.506Z,80.79
2017-11-28T09:48:02.018Z,81.01
2017-11-28T09:50:29.534Z,80.55
2017-11-28T09:52:57.075Z,80.80
2017-11-28T09:55:24.601Z,80.91
2017-11-28T09:57:52.116Z,80.51
2017-11-28T10:00:19.657Z,80.87
2017-11-28T10:02:47.177Z,80.50
2017-11-28T10:05:14.701Z,80.85
2017-11-28T10:07:42.222Z,80.45
2017-11-28T10:10:09.769Z,80.20
2017-11-28T10:12:37.285Z,80.51
2017-11-28T10:15:04.817Z,80.76
2017-11-28T10:17:32.331Z,80.35
2017-11-28T10:19:59.848Z,79.88
2017-11-28T10:22:27.359Z,79.92
2017-11-28T10:24:54.924Z,79.67
2017-11-28T10:27:22.434Z,79.61
2017-11-28T10:29:49.958Z,79.03
2017-11-28T10:32:17.484Z,79.12
2017-11-28T10:34:45.624Z,78.91
2017-11-28T10:37:13.648Z,78.55
2017-11-28T10:39:41.162Z,78.16
2017-11-28T10:42:08.675Z,78.95
2017-11-28T10:44:36.178Z,78.80
2017-11-28T10:47:03.684Z,78.13
2017-11-28T10:49:31.207Z,77.33
2017-11-28T10:51:58.727Z,77.55
2017-11-28T10:54:26.247Z,76.68
2017-11-28T10:56:53.771Z,77.44
2017-11-28T10:59:21.278Z,77.93
2017-11-28T11:01:48.795Z,77.41
2017-11-28T11:04:16.302Z,77.71
2017-11-28T11:06:43.835Z,77.76
2017-11-28T11:09:11.357Z,76.06
2017-11-28T11:11:38.874Z,76.50
2017-11-28T11:14:06.398Z,76.94
2017-11-28T11:16:33.949Z,75.58
2017-11-28T11:19:01.456Z,75.76
2017-11-28T11:21:28.970Z,76.57
2017-11-28T11:23:56.479Z,77.36
2017-11-28T11:26:23.991Z,77.23
2017-11-28T11:28:51.518Z,76.73
2017-11-28T11:31:19.032Z,77.17
2017-11-28T11:33:46.548Z,77.27
2017-11-28T11:36:14.058Z,77.49
2017-11-28T11:38:41.571Z,77.92
2017-11-28T11:41:09.091Z,77.34
2017-11-28T11:43:36.597Z,76.78
2017-11-28T11:46:04.110Z,76.54
2017-11-28T11:48:31.622Z,77.52
2017-11-28T11:50:59.136Z,76.77
2017-11-28T11:53:26.637Z,76.47
2017-11-28T11:55:54.142Z,77.29
2017-11-28T11:58:21.646Z,77.12
2017-11-28T12:00:49.146Z,76.93
2017-11-28T12:03:16.651Z,77.17
2017-11-28T12:05:44.160Z,75.81
2017-11-28T12:08:11.685Z,75.94
2017-11-28T12:10:39.204Z,77.96
2017-11-28T12:13:06.706Z,77.82
2017-11-28T12:15:34.217Z,75.62
2017-11-28T12:18:01.741Z,73.69
2017-11-28T12:20:29.262Z,74.64
2017-11-28T12:22:56.774Z,75.11
2017-11-28T12:25:24.286Z,73.24
2017-11-28T12:27:51.818Z,74.07
2017-11-28T12:30:19.323Z,73.38
2017-11-28T12:32:46.827Z,72.41
2017-11-28T12:35:14.326Z,71.65
2017-11-28T12:37:41.840Z,73.31
2017-11-28T12:40:09.356Z,73.21
2017-11-28T12:42:36.849Z,73.75
2017-11-28T12:45:04.359Z,72.50
2017-11-28T12:47:31.873Z,72.89
2017-11-28T12:49:59.383Z,72.40
2017-11-28T12:52:26.883Z,71.61
2017-11-28T12:54:54.390Z,73.40
2017-11-28T12:57:21.894Z,72.82
2017-11-28T12:59:49.408Z,72.87
2017-11-28T13:02:16.920Z,71.60
2017-11-28T13:04:44.427Z,70.75
2017-11-28T13:07:11.936Z,70.85
2017-11-28T13:09:39.443Z,72.01
2017-11-28T13:12:06.965Z,70.92
2017-11-28T13:14:34.470Z,69.85
2017-11-28T13:17:02.015Z,70.56
2017-11-28T13:19:29.514Z,71.40
2017-11-28T13:21:57.023Z,70.93
2017-11-28T13:24:24.529Z,72.29
2017-11-28T13:26:52.045Z,72.34
2017-11-28T13:29:19.567Z,72.19
2017-11-28T13:31:47.075Z,71.73
2017-11-28T13:34:14.599Z,72.31
2017-11-28T13:36:42.111Z,71.05
2017-11-28T13:39:09.624Z,71.98
2017-11-28T13:41:37.136Z,72.52
2017-11-28T13:44:04.638Z,72.76
2017-11-28T13:46:32.145Z,73.20
2017-11-28T13:48:59.641Z,72.74
2017-11-28T13:51:27.142Z,74.13
2017-11-28T13:53:54.639Z,73.90
2017-11-28T13:56:22.153Z,74.44
2017-11-28T13:58:49.708Z,74.84
2017-11-28T14:01:17.227Z,75.15
2017-11-28T14:03:44.735Z,75.69
2017-11-28T14:06:12.272Z,75.12
2017-11-28T14:08:39.782Z,75.66
2017-11-28T14:11:07.293Z,75.61
2017-11-28T14:13:34.806Z,75.64
2017-11-28T14:16:02.319Z,76.16
2017-11-28T14:18:29.822Z,75.77
2017-11-28T14:21:00.215Z,76.33
2017-11-28T14:23:33.311Z,76.59
2017-11-28T14:26:01.303Z,76.44
2017-11-28T14:28:30.618Z,76.52
2017-11-28T14:31:03.825Z,76.77
2017-11-28T14:33:33.675Z,76.78
2017-11-28T14:36:05.001Z,76.73
2017-11-28T14:38:32.513Z,77.04
2017-11-28T14:41:07.526Z,77.14
2017-11-28T14:43:38.450Z,77.21
2017-11-28T14:46:08.324Z,77.00
2017-11-28T14:48:35.871Z,77.01
2017-11-28T14:51:09.011Z,77.18
2017-11-28T14:53:42.050Z,77.19
2017-11-28T14:56:10.462Z,77.25
2017-11-28T14:58:37.971Z,76.64
2017-11-28T15:04:28.481Z,76.60
2017-11-28T15:10:03.503Z,76.33
2017-11-28T15:15:57.260Z,75.81
2017-11-28T15:18:27.763Z,76.35
2017-11-28T15:24:11.526Z,76.25
2017-11-28T15:26:41.431Z,76.41
2017-11-28T15:29:09.411Z,76.99
2017-11-28T15:31:36.928Z,77.54
2017-11-28T15:34:04.450Z,77.07
2017-11-28T15:36:31.950Z,77.58
2017-11-28T15:38:59.463Z,77.63
2017-11-28T15:41:26.976Z,78.42
2017-11-28T15:43:54.487Z,77.14
2017-11-28T15:46:22.006Z,78.03
2017-11-28T15:48:49.526Z,77.95
2017-11-28T15:51:17.046Z,77.18
2017-11-28T15:53:44.556Z,77.12
2017-11-28T15:56:12.071Z,77.57
2017-11-28T15:58:39.584Z,77.95
2017-11-28T16:01:07.100Z,77.20
2017-11-28T16:03:34.615Z,77.14
2017-11-28T16:06:02.131Z,77.32
2017-11-28T16:08:29.635Z,77.21
2017-11-28T16:10:57.147Z,77.33
2017-11-28T16:13:24.668Z,77.37
2017-11-28T16:15:52.195Z,78.17
2017-11-28T16:18:19.710Z,77.04
2017-11-28T16:20:47.228Z,77.35
2017-11-28T16:23:14.737Z,77.46
2017-11-28T16:25:42.250Z,76.96
2017-11-28T16:28:09.776Z,76.91
2017-11-28T16:30:37.308Z,77.05
2017-11-28T16:33:04.834Z,77.22
2017-11-28T16:35:32.349Z,76.98
2017-11-28T16:37:59.882Z,76.32
2017-11-28T16:40:27.391Z,76.29
2017-11-28T16:42:54.898Z,76.64
2017-11-28T16:45:22.412Z,76.69
2017-11-28T16:47:49.928Z,76.55
2017-11-28T16:50:17.439Z,77.04
2017-11-28T16:52:44.946Z,76.15
2017-11-28T16:55:12.459Z,76.72
2017-11-28T16:57:39.983Z,77.06
2017-11-28T17:00:07.501Z,77.65
2017-11-28T17:02:35.020Z,77.10
2017-11-28T17:05:02.543Z,76.73
2017-11-28T17:07:30.055Z,76.91
2017-11-28T17:09:57.569Z,76.67
2017-11-28T17:12:25.075Z,76.77
2017-11-28T17:14:52.590Z,77.16
2017-11-28T17:17:20.109Z,76.69
2017-11-28T17:19:47.615Z,76.53
2017-11-28T17:22:15.139Z,76.73
2017-11-28T17:24:42.646Z,76.92
2017-11-28T17:27:10.154Z,76.91
2017-11-28T17:29:37.663Z,77.19
2017-11-28T17:32:05.178Z,77.06
2017-11-28T17:34:32.686Z,77.20
2017-11-28T17:37:00.202Z,77.33
2017-11-28T17:39:27.716Z,77.31
2017-11-28T17:41:55.224Z,76.71
2017-11-28T17:44:22.750Z,76.93
2017-11-28T17:46:50.267Z,77.09
2017-11-28T17:49:17.778Z,76.90
2017-11-28T17:51:45.304Z,77.11
2017-11-28T17:54:12.824Z,76.64
2017-11-28T17:56:40.357Z,77.04
2017-11-28T17:59:07.876Z,76.88
2017-11-28T18:01:35.392Z,76.87
2017-11-28T18:04:02.907Z,76.32
2017-11-28T18:06:30.424Z,76.74
2017-11-28T18:08:57.939Z,76.82
2017-11-28T18:11:25.516Z,76.57
2017-11-28T18:13:53.033Z,77.20
2017-11-28T18:16:20.543Z,77.09
2017-11-28T18:18:48.051Z,76.64
2017-11-28T18:21:15.566Z,76.27
2017-11-28T18:23:43.104Z,77.62
2017-11-28T18:26:10.623Z,77.54
2017-11-28T18:28:38.142Z,76.68
2017-11-28T18:31:05.649Z,76.80
2017-11-28T18:33:33.163Z,77.31
2017-11-28T18:36:00.684Z,76.68
2017-11-28T18:38:28.194Z,77.41
2017-11-28T18:40:55.706Z,76.58
2017-11-28T18:43:23.211Z,76.52
2017-11-28T18:45:50.713Z,76.94
2017-11-28T18:48:18.224Z,76.72
2017-11-28T18:50:45.730Z,76.97
2017-11-28T18:53:13.237Z,76.62
2017-11-28T18:55:40.763Z,77.57
2017-11-28T18:58:08.290Z,77.08
2017-11-28T19:00:35.807Z,77.27
2017-11-28T19:03:03.325Z,76.66
2017-11-28T19:05:30.830Z,76.64
2017-11-28T19:07:58.343Z,77.72
2017-11-28T19:10:25.854Z,79.64
2017-11-28T19:12:53.375Z,77.62
2017-11-28T19:15:20.894Z,77.20
2017-11-28T19:17:48.414Z,76.45
2017-11-28T19:20:15.926Z,76.45
2017-11-28T19:22:43.444Z,76.10
2017-11-28T19:25:10.954Z,76.68
2017-11-28T19:27:38.467Z,76.87
2017-11-28T19:30:05.991Z,76.52
2017-11-28T19:32:34.710Z,76.36
2017-11-28T19:35:02.236Z,76.46
2017-11-28T19:37:29.764Z,76.44
2017-11-28T19:39:57.283Z,76.73
2017-11-28T19:42:24.802Z,76.05
2017-11-28T19:44:52.335Z,76.22
2017-11-28T19:47:19.866Z,76.72
2017-11-28T19:49:47.379Z,75.84
2017-11-28T19:52:14.887Z,76.74
2017-11-28T19:54:42.398Z,75.71
2017-11-28T19:57:09.973Z,75.74
2017-11-28T19:59:37.519Z,76.67
2017-11-28T20:02:05.033Z,76.85
2017-11-28T20:04:32.565Z,76.76
2017-11-28T20:07:00.074Z,76.44
2017-11-28T20:09:27.602Z,76.74
2017-11-28T20:11:55.147Z,76.29
2017-11-28T20:14:22.669Z,75.87
2017-11-28T20:16:50.196Z,76.12
2017-11-28T20:19:17.717Z,76.83
2017-11-28T20:21:45.236Z,76.27
2017-11-28T20:24:12.752Z,76.35
2017-11-28T20:26:40.940Z,76.37
2017-11-28T20:29:08.457Z,76.54
2017-11-28T20:31:35.972Z,76.74
2017-11-28T20:34:03.489Z,75.56
2017-11-28T20:36:30.998Z,76.14
2017-11-28T20:38:58.520Z,76.88
2017-11-28T20:41:26.034Z,76.44
2017-11-28T20:43:53.547Z,76.77
2017-11-28T20:46:21.059Z,76.80
2017-11-28T20:48:48.598Z,76.45
2017-11-28T20:51:16.164Z,76.97
2017-11-28T20:53:43.699Z,77.25
2017-11-28T20:56:11.244Z,76.55
2017-11-28T20:58:38.770Z,76.71
2017-11-28T21:01:06.281Z,77.05
2017-11-28T21:03:33.801Z,77.10
2017-11-28T21:06:01.316Z,76.72
2017-11-28T21:08:28.834Z,77.10
2017-11-28T21:10:56.351Z,76.89
2017-11-28T21:13:23.879Z,77.51
2017-11-28T21:15:51.387Z,77.16
2017-11-28T21:18:18.900Z,77.07
2017-11-28T21:20:46.414Z,77.47
2017-11-28T21:23:13.929Z,77.31
2017-11-28T21:25:41.459Z,77.15
2017-11-28T21:28:08.962Z,76.81
2017-11-28T21:30:36.488Z,76.74
2017-11-28T21:33:04.011Z,76.80
2017-11-28T21:35:31.532Z,76.72
2017-11-28T21:37:59.043Z,76.91
2017-11-28T21:40:26.556Z,76.61
2017-11-28T21:42:54.070Z,77.46
2017-11-28T21:45:21.587Z,77.11
2017-11-28T21:47:49.102Z,77.22
2017-11-28T21:50:16.621Z,77.61
2017-11-28T21:52:44.139Z,77.72
2017-11-28T21:55:11.655Z,80.18
2017-11-28T21:57:39.170Z,78.46
2017-11-28T22:00:06.674Z,77.69
2017-11-28T22:02:34.203Z,76.77
2017-11-28T22:05:01.724Z,77.32
2017-11-28T22:07:29.252Z,76.74
2017-11-28T22:09:56.768Z,77.89
2017-11-28T22:12:24.282Z,76.44
2017-11-28T22:14:51.833Z,77.08
2017-11-28T22:17:19.330Z,76.87
2017-11-28T22:19:46.851Z,77.35
2017-11-28T22:22:14.373Z,77.12
2017-11-28T22:24:41.891Z,76.87
2017-11-28T22:45:27.003Z,76.47
2017-11-28T22:47:54.527Z,77.25
2017-11-28T22:50:22.038Z,77.29
2017-11-28T22:52:49.550Z,77.36
2017-11-28T22:55:17.077Z,77.59
2017-11-28T22:57:44.599Z,77.49
2017-11-28T23:00:12.122Z,77.76
2017-11-28T23:02:39.643Z,77.68
2017-11-28T23:05:07.171Z,77.67
2017-11-28T23:07:35.294Z,77.46
2017-11-28T23:10:02.811Z,76.77
2017-11-28T23:12:32.033Z,77.14
2017-11-28T23:14:59.550Z,77.73
2017-11-28T23:17:27.074Z,77.76
2017-11-28T23:19:54.595Z,77.47
2017-11-28T23:22:22.109Z,78.16
2017-11-28T23:24:49.614Z,78.13
2017-11-28T23:27:17.160Z,78.34
2017-11-28T23:29:44.672Z,78.64
2017-11-28T23:32:12.183Z,78.28
2017-11-28T23:34:39.706Z,78.29
2017-11-28T23:37:07.224Z,78.55
2017-11-28T23:39:34.744Z,78.23
2017-11-28T23:42:02.266Z,78.34
2017-11-28T23:44:29.779Z,78.02
2017-11-28T23:46:57.299Z,78.90
2017-11-28T23:49:24.815Z,78.39
2017-11-28T23:51:52.327Z,78.51
2017-11-28T23:54:19.844Z,78.18
2017-11-28T23:56:47.351Z,78.37
2017-11-28T23:59:32.036Z,78.89
